createdAt,value
2022-10-05T08:54:04.207Z,-144.16
2022-10-05T08:56:55.747Z,-144.16
2022-10-05T09:07:52.572Z,20.19
2022-10-05T09:11:07.008Z,20.72
2022-10-05T09:13:51.221Z,20.97
2022-10-05T09:16:48.035Z,21.21
2022-10-05T09:27:39.323Z,21.44
2022-10-05T09:30:27.055Z,21.40
2022-10-05T09:36:34.760Z,21.53
2022-10-05T09:39:26.196Z,21.77
2022-10-05T09:42:34.840Z,22.03
2022-10-05T09:45:40.198Z,22.17
2022-10-05T09:48:47.683Z,22.23
2022-10-05T09:51:55.055Z,22.43
2022-10-05T09:54:31.229Z,22.58
2022-10-05T09:57:34.737Z,22.66
2022-10-05T10:09:10.274Z,22.95
2022-10-05T10:12:14.700Z,23.12
2022-10-05T10:15:19.567Z,23.34
2022-10-05T10:18:18.388Z,23.42
2022-10-05T10:21:11.942Z,23.54
2022-10-05T10:24:32.168Z,23.70
2022-10-05T10:27:05.444Z,23.77
2022-10-05T10:30:30.179Z,23.74
2022-10-05T10:33:43.764Z,23.80
2022-10-05T10:36:20.567Z,23.95
2022-10-05T10:39:15.476Z,23.99
2022-10-05T10:41:48.511Z,24.05
2022-10-05T10:45:00.152Z,24.13
2022-10-05T10:47:50.519Z,24.14
2022-10-05T10:50:26.292Z,24.07
2022-10-05T10:53:23.905Z,23.83
2022-10-05T10:56:18.255Z,23.84
2022-10-05T10:58:50.713Z,23.87
2022-10-05T11:01:56.783Z,23.63
2022-10-05T11:05:02.926Z,23.60
2022-10-05T11:07:44.751Z,23.50
2022-10-05T11:10:32.887Z,23.55
2022-10-05T11:13:40.663Z,23.78
2022-10-05T11:16:52.099Z,23.85
2022-10-05T11:20:02.903Z,23.71
2022-10-05T11:22:46.799Z,23.50
2022-10-05T11:25:46.665Z,23.26
2022-10-05T11:28:55.267Z,23.71
2022-10-05T11:32:18.124Z,23.09
2022-10-05T11:35:06.115Z,23.70
2022-10-05T11:38:26.869Z,23.51
2022-10-05T11:41:50.111Z,23.73
2022-10-05T11:44:58.800Z,23.95
2022-10-05T11:47:37.881Z,23.36
2022-10-05T11:50:23.073Z,24.17
2022-10-05T11:53:02.970Z,24.25
2022-10-05T11:55:42.188Z,24.03
2022-10-05T11:58:35.530Z,24.21
2022-10-05T12:01:19.849Z,24.04
2022-10-05T12:04:35.850Z,24.09
2022-10-05T12:07:43.014Z,24.55
2022-10-05T12:10:35.583Z,24.48
2022-10-05T12:13:29.069Z,24.53
2022-10-05T12:16:04.958Z,24.71
2022-10-05T12:18:32.605Z,24.06
2022-10-05T12:21:06.178Z,24.24
2022-10-05T12:23:58.905Z,23.92
2022-10-05T12:26:37.720Z,24.24
2022-10-05T12:29:22.502Z,24.30
2022-10-05T12:32:04.281Z,24.05
2022-10-05T12:34:47.344Z,23.75
2022-10-05T12:37:58.544Z,23.75
2022-10-05T12:40:46.416Z,23.36
2022-10-05T12:43:51.283Z,23.72
2022-10-05T12:46:58.357Z,23.78
2022-10-05T12:49:33.716Z,24.32
2022-10-05T12:52:45.885Z,24.69
2022-10-05T12:55:36.784Z,25.03
2022-10-05T12:58:25.012Z,24.79
2022-10-05T13:01:18.083Z,24.92
2022-10-05T13:04:19.029Z,24.90
2022-10-05T13:07:18.207Z,24.81
2022-10-05T13:10:13.801Z,24.64
2022-10-05T13:12:48.110Z,24.77
2022-10-05T13:15:33.377Z,24.79
2022-10-05T13:19:01.261Z,24.83
2022-10-05T13:21:40.874Z,24.05
2022-10-05T13:24:29.873Z,23.96
2022-10-05T13:27:22.621Z,23.91
2022-10-05T13:30:19.143Z,23.92
2022-10-05T13:33:47.131Z,24.03
2022-10-05T13:36:46.604Z,24.13
2022-10-05T13:39:33.037Z,24.27
2022-10-05T13:42:41.218Z,24.44
2022-10-05T13:45:27.287Z,24.51
2022-10-05T13:48:52.761Z,24.73
2022-10-05T13:51:34.105Z,24.49
2022-10-05T13:54:27.617Z,24.26
2022-10-05T13:57:46.262Z,24.20
2022-10-05T14:00:26.281Z,24.11
2022-10-05T14:02:57.450Z,24.20
2022-10-05T14:05:37.846Z,24.24
2022-10-05T14:08:10.196Z,23.94
2022-10-05T14:10:45.228Z,23.86
2022-10-05T14:13:32.141Z,23.63
2022-10-05T14:16:22.052Z,23.77
2022-10-05T14:19:08.232Z,23.87
2022-10-05T14:22:17.493Z,23.65
2022-10-05T14:25:10.310Z,23.66
2022-10-05T14:27:51.388Z,23.68
2022-10-05T14:30:26.817Z,23.38
2022-10-05T14:33:07.998Z,23.28
2022-10-05T14:36:00.109Z,23.34
2022-10-05T14:38:52.906Z,23.26
2022-10-05T14:41:27.550Z,23.22
2022-10-05T14:52:35.087Z,23.06
2022-10-05T14:55:35.302Z,22.92
2022-10-05T14:58:46.218Z,22.62
2022-10-05T15:01:37.105Z,22.32
2022-10-05T15:05:02.360Z,22.10
2022-10-05T15:07:44.587Z,22.06
2022-10-05T15:10:39.334Z,21.84
2022-10-05T15:30:04.937Z,20.93
2022-10-05T15:32:43.801Z,21.00
2022-10-05T15:35:56.076Z,20.97
2022-10-05T15:38:37.473Z,20.88
2022-10-05T15:41:50.490Z,20.92
2022-10-05T15:44:42.368Z,20.85
2022-10-05T15:47:43.486Z,20.76
2022-10-05T15:50:26.270Z,20.67
2022-10-05T16:01:23.152Z,20.32
2022-10-05T16:04:11.353Z,20.32
2022-10-05T16:07:17.905Z,20.35
2022-10-05T16:10:09.787Z,20.38
2022-10-05T16:13:07.497Z,20.39
2022-10-05T16:15:50.067Z,20.32
2022-10-05T16:18:48.170Z,20.26
2022-10-05T16:22:16.469Z,20.16
2022-10-05T16:25:07.554Z,20.05
2022-10-05T16:28:11.576Z,20.04
2022-10-05T16:31:11.666Z,20.00
2022-10-05T16:34:09.459Z,19.97
2022-10-05T16:36:58.360Z,19.98
2022-10-05T16:39:51.972Z,19.86
2022-10-05T16:42:57.837Z,19.80
2022-10-05T16:46:22.059Z,19.79
2022-10-05T16:48:58.503Z,19.82
2022-10-05T16:51:33.584Z,19.79
2022-10-05T16:54:24.775Z,19.75
2022-10-05T16:57:02.570Z,19.66
2022-10-05T17:00:01.642Z,19.71
2022-10-05T17:03:02.145Z,19.61
2022-10-05T17:05:55.886Z,19.59
2022-10-05T17:25:06.212Z,19.43
2022-10-05T17:27:33.301Z,19.41
2022-10-05T17:30:48.576Z,19.47
2022-10-05T17:33:30.664Z,19.36
2022-10-05T17:36:04.740Z,19.37
2022-10-05T17:38:31.672Z,19.40
2022-10-05T17:41:17.795Z,19.41
2022-10-05T17:52:45.225Z,19.32
2022-10-05T17:55:45.106Z,19.32
2022-10-05T17:58:24.797Z,19.29
2022-10-05T18:00:57.679Z,19.30
2022-10-05T18:03:47.566Z,19.29
2022-10-05T18:06:31.928Z,19.33
2022-10-05T18:09:23.111Z,19.35
2022-10-05T18:12:17.866Z,19.34
2022-10-05T18:15:14.356Z,19.34
2022-10-05T18:17:59.928Z,19.30
2022-10-05T18:20:35.021Z,19.30
2022-10-05T18:23:09.465Z,19.35
2022-10-05T18:26:20.471Z,19.37
2022-10-05T18:29:14.367Z,19.39
2022-10-05T18:32:01.290Z,19.37
2022-10-05T18:39:30.674Z,19.38
2022-10-05T18:42:51.668Z,19.37
2022-10-05T18:46:00.489Z,19.33
2022-10-05T18:48:43.117Z,19.34
2022-10-05T18:51:31.083Z,19.36
2022-10-05T18:54:54.785Z,19.36
2022-10-05T18:57:41.795Z,19.33
2022-10-05T19:00:22.458Z,19.30
2022-10-05T19:03:08.208Z,19.31
2022-10-05T19:06:22.178Z,19.33
2022-10-05T19:09:02.690Z,19.30
2022-10-05T19:12:09.169Z,19.31
2022-10-05T19:15:22.143Z,19.31
2022-10-05T19:18:35.036Z,19.40
2022-10-05T19:21:30.352Z,19.40
2022-10-05T19:24:06.018Z,19.36
2022-10-05T19:27:00.098Z,19.41
2022-10-05T19:29:36.475Z,19.40
2022-10-05T19:32:30.582Z,19.42
2022-10-05T19:35:18.534Z,19.46
2022-10-05T19:38:25.563Z,19.45
2022-10-05T19:41:14.923Z,19.37
2022-10-05T19:44:02.947Z,19.37
2022-10-05T19:47:14.889Z,19.43
2022-10-05T19:49:52.368Z,19.44
2022-10-05T19:52:48.975Z,19.47
2022-10-05T19:55:31.275Z,19.52
2022-10-05T19:58:01.353Z,19.49
2022-10-05T20:00:32.719Z,19.48
2022-10-05T20:03:31.168Z,19.41
2022-10-05T20:06:01.602Z,19.26
2022-10-05T20:08:43.737Z,19.19
2022-10-05T20:11:16.006Z,19.05
2022-10-05T20:13:46.788Z,19.00
2022-10-05T20:16:39.962Z,18.97
2022-10-05T20:19:49.805Z,18.91
2022-10-05T20:22:37.379Z,18.87
2022-10-05T20:25:17.812Z,18.85
2022-10-05T20:27:55.636Z,18.82
2022-10-05T20:30:31.322Z,18.81
2022-10-05T20:33:01.489Z,18.93
2022-10-05T20:35:30.959Z,18.95
2022-10-05T20:38:01.800Z,18.83
2022-10-05T20:40:32.322Z,18.77
2022-10-05T20:42:59.455Z,18.72
2022-10-05T20:45:28.397Z,18.71
2022-10-05T20:47:55.381Z,18.70
2022-10-05T20:50:22.842Z,18.69
2022-10-05T20:52:49.938Z,18.67
2022-10-05T20:55:19.542Z,18.61
2022-10-05T20:57:47.059Z,18.60
2022-10-05T21:00:15.439Z,18.60
2022-10-05T21:02:42.385Z,18.59
2022-10-05T21:05:09.650Z,18.59
2022-10-05T21:07:36.984Z,18.55
2022-10-05T21:10:04.871Z,18.58
2022-10-05T21:12:34.040Z,18.55
2022-10-05T21:15:01.502Z,18.56
2022-10-05T21:17:28.503Z,18.60
2022-10-05T21:19:55.485Z,18.59
2022-10-05T21:22:22.709Z,18.53
2022-10-05T21:24:49.765Z,18.54
2022-10-05T21:27:16.915Z,18.42
2022-10-05T21:29:44.280Z,18.05
2022-10-05T21:32:12.057Z,17.78
2022-10-05T21:34:40.221Z,17.38
2022-10-05T21:37:08.479Z,17.09
2022-10-05T21:39:37.641Z,16.90
2022-10-05T21:42:05.570Z,16.67
2022-10-05T21:44:33.201Z,16.57
2022-10-05T21:47:01.609Z,16.40
2022-10-05T21:49:31.907Z,16.32
2022-10-05T21:52:04.074Z,16.19
2022-10-05T21:54:33.376Z,16.08
2022-10-05T21:57:00.714Z,16.01
2022-10-05T21:59:33.076Z,15.95
2022-10-05T22:02:00.252Z,15.95
2022-10-05T22:04:27.290Z,15.93
2022-10-05T22:06:55.840Z,15.87
2022-10-05T22:09:23.154Z,15.82
2022-10-05T22:11:50.747Z,15.82
2022-10-05T22:14:17.784Z,15.78
2022-10-05T22:16:45.400Z,15.76
2022-10-05T22:19:19.120Z,15.79
2022-10-05T22:21:46.193Z,15.75
2022-10-05T22:24:13.185Z,15.79
2022-10-05T22:26:43.740Z,15.81
2022-10-05T22:29:10.973Z,15.81
2022-10-05T22:31:39.358Z,15.79
2022-10-05T22:34:06.369Z,15.80
2022-10-05T22:36:37.312Z,15.73
2022-10-05T22:39:05.029Z,15.66
2022-10-05T22:41:32.402Z,15.59
2022-10-05T22:44:00.390Z,15.54
2022-10-05T22:46:27.593Z,15.49
2022-10-05T22:48:54.727Z,15.45
2022-10-05T22:51:21.701Z,15.36
2022-10-05T22:53:48.712Z,15.34
2022-10-05T22:56:17.295Z,15.32
2022-10-05T22:58:45.197Z,15.29
2022-10-05T23:01:16.573Z,15.27
2022-10-05T23:03:44.965Z,15.23
2022-10-05T23:06:19.363Z,15.19
2022-10-05T23:08:47.017Z,15.16
2022-10-05T23:11:17.190Z,15.14
2022-10-05T23:13:44.510Z,15.15
2022-10-05T23:16:17.748Z,15.11
2022-10-05T23:18:47.484Z,15.07
2022-10-05T23:21:14.578Z,15.04
2022-10-05T23:23:47.415Z,15.05
2022-10-05T23:26:15.579Z,15.04
2022-10-05T23:28:47.330Z,15.02
2022-10-05T23:31:18.220Z,14.99
2022-10-05T23:33:45.472Z,14.96
2022-10-05T23:36:32.866Z,14.93
2022-10-05T23:39:00.378Z,14.90
2022-10-05T23:41:27.711Z,14.87
2022-10-05T23:43:55.300Z,14.82
2022-10-05T23:46:22.687Z,14.76
2022-10-05T23:48:53.199Z,14.75
2022-10-05T23:51:20.709Z,14.77
2022-10-05T23:53:47.629Z,14.75
2022-10-05T23:56:14.603Z,14.75
2022-10-05T23:58:41.638Z,14.71
